Time;durP1;ratioP1;P1;durP2;ratioP2;P2;SDS_P1;SDS_P2;PMS_P1;PMS_P2;Temp;Humidity;BMP_temperature;BMP_pressure;BME280_temperature;BME280_humidity;BME280_pressure;Samples;Min_cycle;Max_cycle;Signal;HPM_P1;HPM_P2
2021/03/18 00:00:39;;;;;;;5.22;3.28;;;1.50;99.90;;;;;;5048567;28;20028;-73
2021/03/18 00:03:05;;;;;;;7.53;3.55;;;1.50;99.90;;;;;;5057930;28;20052;-73
2021/03/18 00:05:30;;;;;;;6.20;3.30;;;1.50;99.90;;;;;;5054099;28;20104;-73
2021/03/18 00:07:57;;;;;;;7.75;3.45;;;1.50;99.90;;;;;;5049556;28;20112;-73
2021/03/18 00:10:22;;;;;;;8.65;3.20;;;1.50;99.90;;;;;;5052586;28;20040;-72
2021/03/18 00:12:48;;;;;;;5.13;3.60;;;1.40;99.90;;;;;;5046225;28;20403;-73
2021/03/18 00:15:23;;;;;;;5.45;3.65;;;1.40;99.90;;;;;;5051047;28;20138;-72
2021/03/18 00:17:49;;;;;;;6.53;3.17;;;1.30;99.90;;;;;;5043814;28;20032;-72
2021/03/18 00:20:16;;;;;;;5.65;3.10;;;1.30;99.90;;;;;;5050812;28;20032;-73
2021/03/18 00:22:42;;;;;;;5.47;3.30;;;1.30;99.90;;;;;;5046651;28;20521;-73
2021/03/18 00:25:11;;;;;;;7.28;3.00;;;1.30;99.90;;;;;;5058154;28;20051;-73
2021/03/18 00:27:38;;;;;;;4.97;2.92;;;1.30;99.90;;;;;;5048229;28;20016;-73
2021/03/18 00:30:06;;;;;;;5.20;3.00;;;1.40;99.90;;;;;;5044371;28;20108;-73
2021/03/18 00:32:32;;;;;;;6.78;3.50;;;1.30;99.90;;;;;;5045748;28;20100;-73
2021/03/18 00:34:58;;;;;;;4.90;3.05;;;1.20;99.90;;;;;;5047904;28;20025;-73
2021/03/18 00:37:23;;;;;;;9.27;2.88;;;1.30;99.90;;;;;;5057047;28;20494;-73
2021/03/18 00:39:49;;;;;;;6.38;3.45;;;1.30;99.90;;;;;;5050159;28;20024;-72
2021/03/18 00:42:14;;;;;;;5.00;2.88;;;1.30;99.90;;;;;;5050761;28;20029;-72
2021/03/18 00:44:40;;;;;;;4.22;3.00;;;1.40;99.90;;;;;;5055422;28;20125;-72
2021/03/18 00:47:06;;;;;;;4.00;2.92;;;1.40;99.90;;;;;;5048669;28;20025;-73
2021/03/18 00:49:31;;;;;;;8.40;3.13;;;1.50;99.90;;;;;;5051629;28;20045;-73
2021/03/18 00:51:57;;;;;;;9.45;3.10;;;1.50;99.90;;;;;;5055805;28;20361;-73
2021/03/18 00:54:23;;;;;;;6.75;2.90;;;1.50;99.90;;;;;;5047567;28;20032;-73
2021/03/18 00:56:48;;;;;;;5.38;3.15;;;1.50;99.90;;;;;;5049928;28;20036;-73
2021/03/18 00:59:14;;;;;;;5.30;3.30;;;1.40;99.90;;;;;;5049966;28;20040;-72
2021/03/18 01:01:39;;;;;;;6.22;2.78;;;1.40;99.90;;;;;;5051355;28;20043;-73
2021/03/18 01:04:07;;;;;;;7.25;3.83;;;1.50;99.90;;;;;;5050412;28;20028;-72
2021/03/18 01:06:37;;;;;;;6.03;2.95;;;1.50;99.90;;;;;;5047132;28;20062;-72
2021/03/18 01:09:05;;;;;;;6.68;3.15;;;1.50;99.90;;;;;;5050114;28;20095;-72
2021/03/18 01:11:35;;;;;;;5.75;3.35;;;1.40;99.90;;;;;;5054919;28;20021;-73
2021/03/18 01:14:05;;;;;;;5.72;2.72;;;1.40;99.90;;;;;;5051710;28;20083;-72
2021/03/18 01:16:47;;;;;;;6.78;3.75;;;1.40;99.90;;;;;;5054553;28;20260;-73
2021/03/18 01:19:14;;;;;;;7.22;3.92;;;1.50;99.90;;;;;;5052748;28;20039;-72
2021/03/18 01:21:43;;;;;;;8.05;3.90;;;1.60;99.90;;;;;;5049670;28;20110;-73
2021/03/18 01:24:10;;;;;;;8.88;4.15;;;1.60;99.90;;;;;;5049551;28;20074;-73
2021/03/18 01:26:36;;;;;;;7.50;3.92;;;1.60;99.90;;;;;;5049806;28;20112;-72
2021/03/18 01:29:02;;;;;;;7.00;3.90;;;1.60;99.90;;;;;;5047336;28;20455;-73
2021/03/18 01:31:30;;;;;;;7.40;3.97;;;1.70;99.90;;;;;;5051763;28;20025;-73
2021/03/18 01:33:56;;;;;;;5.97;3.58;;;1.60;99.90;;;;;;5053091;28;20036;-73
2021/03/18 01:36:23;;;;;;;5.82;3.75;;;1.60;99.90;;;;;;5058581;28;20029;-72
2021/03/18 01:38:48;;;;;;;8.90;3.97;;;1.60;99.90;;;;;;5050984;28;20391;-72
2021/03/18 01:41:15;;;;;;;6.45;3.80;;;1.60;99.90;;;;;;5047906;28;20025;-72
2021/03/18 01:43:42;;;;;;;9.82;4.03;;;1.60;99.90;;;;;;5055187;28;20029;-73
2021/03/18 01:46:08;;;;;;;6.05;3.75;;;1.60;99.90;;;;;;5046490;28;20031;-73
2021/03/18 01:48:35;;;;;;;8.98;3.80;;;1.60;99.90;;;;;;5049949;28;20059;-72
2021/03/18 01:51:01;;;;;;;7.47;3.88;;;1.60;99.90;;;;;;5050512;28;20028;-72
2021/03/18 01:53:27;;;;;;;8.15;3.92;;;1.70;99.90;;;;;;5057087;28;20028;-73
2021/03/18 01:55:55;;;;;;;7.63;4.43;;;1.70;99.90;;;;;;5056021;28;20035;-74
2021/03/18 01:58:21;;;;;;;7.75;4.32;;;1.60;99.90;;;;;;5050325;28;20021;-72
2021/03/18 02:00:53;;;;;;;8.98;4.75;;;1.60;99.90;;;;;;5048847;28;20501;-72
2021/03/18 02:03:18;;;;;;;7.63;4.18;;;1.80;99.90;;;;;;5056019;28;20028;-72
2021/03/18 02:05:46;;;;;;;7.97;4.32;;;1.90;99.90;;;;;;5050968;28;20051;-73
2021/03/18 02:08:11;;;;;;;7.38;4.20;;;1.80;99.90;;;;;;5052028;28;20029;-72
2021/03/18 02:10:39;;;;;;;8.32;4.18;;;1.60;99.90;;;;;;5054453;28;20031;-73
2021/03/18 02:13:06;;;;;;;8.10;3.88;;;1.60;99.90;;;;;;5046674;28;20513;-72
2021/03/18 02:15:36;;;;;;;9.05;4.35;;;1.60;99.90;;;;;;5053294;28;20040;-73
2021/03/18 02:18:28;;;;;;;7.15;4.15;;;1.70;99.90;;;;;;5046629;28;20535;-73
2021/03/18 02:21:09;;;;;;;7.00;4.03;;;1.70;99.90;;;;;;5052501;28;20029;-72
2021/03/18 02:23:53;;;;;;;9.43;4.75;;;1.80;99.90;;;;;;5049480;28;20438;-73
2021/03/18 02:26:33;;;;;;;8.57;4.93;;;1.90;99.90;;;;;;5051287;28;20551;-72
2021/03/18 02:29:36;;;;;;;10.70;5.07;;;1.80;99.90;;;;;;5052091;28;20033;-72
2021/03/18 02:32:29;;;;;;;7.88;4.55;;;1.80;99.90;;;;;;5058977;28;20290;-73
2021/03/18 02:35:19;;;;;;;9.38;4.60;;;1.90;99.90;;;;;;5054156;28;20040;-72
2021/03/18 02:38:06;;;;;;;12.38;4.68;;;2.00;99.90;;;;;;5051383;28;20036;-72
2021/03/18 02:40:36;;;;;;;10.43;4.72;;;2.10;99.90;;;;;;5042297;28;20021;-72
2021/03/18 02:43:06;;;;;;;9.27;4.70;;;2.10;99.90;;;;;;5052854;28;20029;-73
2021/03/18 02:45:40;;;;;;;9.07;4.80;;;2.20;99.90;;;;;;5053954;28;20059;-73
2021/03/18 02:48:09;;;;;;;10.43;5.47;;;2.30;99.90;;;;;;5048089;28;20291;-73
2021/03/18 02:50:36;;;;;;;9.65;4.57;;;2.30;99.90;;;;;;5047205;28;20048;-73
2021/03/18 02:53:02;;;;;;;8.10;4.57;;;2.30;99.90;;;;;;5053198;28;20021;-73
2021/03/18 02:55:31;;;;;;;9.80;5.30;;;2.30;99.90;;;;;;5047812;28;20119;-73
2021/03/18 02:57:58;;;;;;;10.48;5.10;;;2.30;99.90;;;;;;5050084;28;20036;-73
2021/03/18 03:00:25;;;;;;;9.23;5.15;;;2.30;99.90;;;;;;5053478;28;20159;-73
2021/03/18 03:02:51;;;;;;;9.45;5.07;;;2.30;99.90;;;;;;5045299;28;20078;-73
2021/03/18 03:05:20;;;;;;;6.85;4.30;;;2.30;99.90;;;;;;5047221;28;20033;-73
2021/03/18 03:08:08;;;;;;;8.65;4.40;;;2.20;99.90;;;;;;5054062;28;20037;-72
2021/03/18 03:10:35;;;;;;;7.60;3.60;;;2.30;99.90;;;;;;5047459;28;20047;-73
2021/03/18 03:13:01;;;;;;;10.40;4.45;;;2.40;99.90;;;;;;5047497;28;20043;-72
2021/03/18 03:15:30;;;;;;;5.45;3.47;;;2.40;99.90;;;;;;5050812;28;20028;-74
2021/03/18 03:17:58;;;;;;;8.82;3.88;;;2.50;99.90;;;;;;5054234;28;20103;-73
2021/03/18 03:20:24;;;;;;;7.45;4.05;;;2.50;99.90;;;;;;5045536;28;20033;-72
2021/03/18 03:22:53;;;;;;;6.63;3.75;;;2.50;99.90;;;;;;5053767;28;20476;-71
2021/03/18 03:25:19;;;;;;;5.72;3.83;;;2.40;99.90;;;;;;5061701;28;20037;-72
2021/03/18 03:27:46;;;;;;;8.60;3.63;;;2.50;99.90;;;;;;5062164;28;20040;-71
2021/03/18 03:30:34;;;;;;;5.03;3.60;;;2.50;99.90;;;;;;5063387;28;20029;-72
2021/03/18 03:32:59;;;;;;;5.47;3.40;;;2.40;99.90;;;;;;5063237;28;20094;-72
2021/03/18 03:35:26;;;;;;;8.23;3.28;;;2.50;99.90;;;;;;5064619;28;20391;-73
2021/03/18 03:37:52;;;;;;;6.85;3.67;;;2.60;99.90;;;;;;5065211;28;20029;-73
2021/03/18 03:40:19;;;;;;;7.90;4.05;;;2.60;99.90;;;;;;5062610;28;20094;-73
2021/03/18 03:42:44;;;;;;;8.35;3.90;;;2.50;99.90;;;;;;5062936;28;20032;-72
2021/03/18 03:45:13;;;;;;;8.65;4.70;;;2.50;99.90;;;;;;5064188;28;20024;-72
2021/03/18 03:47:38;;;;;;;9.32;4.47;;;2.50;99.90;;;;;;5065101;28;20024;-72
2021/03/18 03:50:07;;;;;;;8.43;4.15;;;2.50;99.90;;;;;;5063135;28;20408;-73
2021/03/18 03:52:42;;;;;;;13.70;4.55;;;2.40;99.90;;;;;;5062229;28;20034;-72
2021/03/18 03:55:41;;;;;;;7.78;3.65;;;2.40;99.90;;;;;;5064435;28;20033;-73
2021/03/18 03:58:19;;;;;;;8.25;3.55;;;2.40;99.90;;;;;;5063195;28;20025;-72
2021/03/18 04:00:45;;;;;;;7.88;3.80;;;2.40;99.90;;;;;;5057969;28;20035;-73
2021/03/18 04:03:11;;;;;;;16.00;4.13;;;2.30;99.90;;;;;;5064214;28;20016;-73
2021/03/18 04:05:45;;;;;;;6.82;3.65;;;2.20;99.90;;;;;;5060056;28;20051;-72
2021/03/18 04:08:13;;;;;;;9.50;3.72;;;2.30;99.90;;;;;;5063826;28;20040;-72
2021/03/18 04:10:42;;;;;;;7.00;3.70;;;2.30;99.90;;;;;;5062357;28;20028;-73
2021/03/18 04:13:12;;;;;;;5.85;3.50;;;2.30;99.90;;;;;;5060035;28;20102;-72
2021/03/18 04:15:39;;;;;;;5.65;3.50;;;2.30;99.90;;;;;;5062118;28;20035;-71
2021/03/18 04:18:06;;;;;;;7.63;4.32;;;2.30;99.90;;;;;;5066031;28;20017;-73
2021/03/18 04:20:35;;;;;;;8.75;4.18;;;2.30;99.90;;;;;;5061359;28;20099;-73
2021/03/18 04:23:03;;;;;;;7.97;4.13;;;2.40;99.90;;;;;;5066023;28;20017;-73
2021/03/18 04:25:29;;;;;;;6.72;3.75;;;2.40;99.90;;;;;;5062409;28;20037;-72
2021/03/18 04:27:56;;;;;;;7.55;3.80;;;2.40;99.90;;;;;;5062353;28;20081;-73
2021/03/18 04:30:27;;;;;;;7.50;3.95;;;2.40;99.90;;;;;;5062142;28;20047;-72
2021/03/18 04:32:54;;;;;;;7.78;3.92;;;2.40;99.90;;;;;;5064724;28;20445;-73
2021/03/18 04:35:20;;;;;;;6.82;4.05;;;2.30;99.90;;;;;;5062002;28;20028;-71
2021/03/18 04:37:46;;;;;;;11.38;5.13;;;2.40;99.90;;;;;;5062472;28;20029;-71
2021/03/18 04:40:15;;;;;;;11.63;4.60;;;2.40;99.90;;;;;;5063860;28;20033;-72
2021/03/18 04:42:41;;;;;;;6.50;4.15;;;2.40;99.90;;;;;;5062804;28;20032;-73
2021/03/18 04:45:09;;;;;;;5.80;4.22;;;2.40;99.90;;;;;;5059761;28;20033;-74
2021/03/18 04:47:36;;;;;;;6.85;4.10;;;2.50;99.90;;;;;;5066248;28;20020;-71
2021/03/18 04:50:04;;;;;;;8.27;4.45;;;2.40;99.90;;;;;;5064671;28;20167;-72
2021/03/18 04:52:31;;;;;;;8.13;4.07;;;2.40;99.90;;;;;;5067961;28;20182;-73
2021/03/18 04:54:56;;;;;;;7.97;4.00;;;2.40;99.90;;;;;;5067708;28;20031;-72
2021/03/18 04:57:25;;;;;;;8.70;4.43;;;2.30;99.90;;;;;;5066046;28;20469;-73
2021/03/18 04:59:52;;;;;;;9.13;4.70;;;2.40;99.90;;;;;;5065674;28;20033;-72
2021/03/18 05:02:19;;;;;;;10.15;5.10;;;2.40;99.90;;;;;;5067081;28;20024;-72
2021/03/18 05:04:45;;;;;;;8.77;4.68;;;2.40;99.90;;;;;;5065382;28;20102;-72
2021/03/18 05:07:13;;;;;;;10.38;5.22;;;2.40;99.90;;;;;;5068023;28;20064;-72
2021/03/18 05:09:40;;;;;;;13.15;5.30;;;2.50;99.90;;;;;;5064883;28;20042;-72
2021/03/18 05:12:07;;;;;;;10.60;4.65;;;2.40;99.90;;;;;;5068515;28;20078;-72
2021/03/18 05:14:33;;;;;;;8.40;5.35;;;2.50;99.90;;;;;;5067904;28;20028;-72
2021/03/18 05:17:00;;;;;;;11.25;4.88;;;2.50;99.90;;;;;;5067583;28;20066;-72
2021/03/18 05:19:25;;;;;;;12.98;5.82;;;2.60;99.90;;;;;;5065667;28;20880;-72
2021/03/18 05:21:51;;;;;;;12.30;5.32;;;2.60;99.90;;;;;;5060786;28;20032;-72
2021/03/18 05:24:17;;;;;;;13.38;5.65;;;2.60;99.90;;;;;;5065939;28;20021;-72
2021/03/18 05:26:44;;;;;;;11.45;5.03;;;2.70;99.90;;;;;;5068196;28;20064;-72
2021/03/18 05:29:10;;;;;;;8.48;5.18;;;2.70;99.90;;;;;;5067979;28;20031;-72
2021/03/18 05:31:36;;;;;;;11.15;4.97;;;2.80;99.90;;;;;;5067556;28;20368;-72
2021/03/18 05:34:02;;;;;;;8.50;4.50;;;2.70;99.90;;;;;;5062877;28;20035;-72
2021/03/18 05:36:28;;;;;;;10.23;4.57;;;2.70;99.90;;;;;;5066066;28;20751;-71
2021/03/18 05:38:54;;;;;;;10.27;4.55;;;2.70;99.90;;;;;;5062552;28;20029;-72
2021/03/18 05:41:20;;;;;;;9.30;4.55;;;2.70;99.90;;;;;;5062709;28;20127;-70
2021/03/18 05:43:46;;;;;;;7.97;4.35;;;2.50;99.90;;;;;;5065022;28;20115;-72
2021/03/18 05:46:13;;;;;;;9.15;4.35;;;2.50;99.90;;;;;;5065766;28;20043;-72
2021/03/18 05:48:39;;;;;;;9.15;5.00;;;2.50;99.90;;;;;;5066110;28;20045;-72
2021/03/18 05:51:06;;;;;;;10.40;5.10;;;2.60;99.90;;;;;;5062942;28;20032;-73
2021/03/18 05:53:32;;;;;;;8.25;4.80;;;2.60;99.90;;;;;;5064632;28;20056;-71
2021/03/18 05:56:00;;;;;;;8.50;4.70;;;2.70;99.90;;;;;;5065843;28;20063;-72
2021/03/18 05:58:26;;;;;;;10.23;5.00;;;2.60;99.90;;;;;;5063024;28;20078;-72
2021/03/18 06:00:53;;;;;;;9.38;4.80;;;2.70;99.90;;;;;;5063526;28;20442;-72
2021/03/18 06:03:20;;;;;;;14.23;5.90;;;2.80;99.90;;;;;;5067146;28;20028;-72
2021/03/18 06:05:46;;;;;;;7.68;4.60;;;2.90;99.90;;;;;;5065850;28;20482;-72
2021/03/18 06:08:12;;;;;;;9.25;4.90;;;2.90;99.90;;;;;;5065755;28;20032;-72
2021/03/18 06:10:38;;;;;;;9.93;5.05;;;2.90;99.90;;;;;;5067057;28;20674;-72
2021/03/18 06:13:03;;;;;;;10.88;5.20;;;2.90;99.90;;;;;;5064442;28;20032;-73
2021/03/18 06:15:29;;;;;;;9.27;5.18;;;3.00;99.90;;;;;;5066544;28;20078;-73
2021/03/18 06:17:55;;;;;;;9.45;5.60;;;3.10;99.90;;;;;;5064820;28;20025;-72
2021/03/18 06:20:27;;;;;;;10.23;5.38;;;3.20;99.90;;;;;;5046658;28;20017;-72
2021/03/18 06:22:53;;;;;;;9.40;4.60;;;3.20;99.90;;;;;;5066946;28;20021;-73
2021/03/18 06:25:27;;;;;;;11.23;5.63;;;3.20;99.90;;;;;;5064320;28;20025;-72
2021/03/18 06:28:22;;;;;;;9.73;5.40;;;3.20;99.90;;;;;;5065603;28;20218;-71
2021/03/18 06:31:09;;;;;;;10.02;5.63;;;3.10;99.90;;;;;;5064737;28;20653;-72
2021/03/18 06:33:47;;;;;;;10.75;5.35;;;3.20;99.90;;;;;;5065233;28;20056;-72
2021/03/18 06:36:24;;;;;;;11.18;5.72;;;3.20;99.90;;;;;;5061676;28;20075;-72
2021/03/18 06:39:11;;;;;;;10.02;5.82;;;3.30;99.90;;;;;;5054247;28;20032;-72
2021/03/18 06:41:39;;;;;;;8.57;5.22;;;3.40;99.90;;;;;;5055412;28;20035;-72
2021/03/18 06:44:27;;;;;;;11.45;6.20;;;3.50;99.90;;;;;;5052540;28;20402;-72
2021/03/18 06:47:05;;;;;;;12.90;5.35;;;3.50;99.90;;;;;;5057473;28;20036;-72
2021/03/18 06:49:30;;;;;;;14.95;6.55;;;3.40;99.90;;;;;;5056873;28;20136;-73
2021/03/18 06:52:12;;;;;;;14.10;6.00;;;3.50;99.90;;;;;;5015825;23;20192;-72
2021/03/18 06:54:42;;;;;;;13.02;6.07;;;3.50;99.90;;;;;;5000810;28;20373;-72
2021/03/18 06:57:08;;;;;;;14.60;5.93;;;3.50;99.90;;;;;;5002431;28;20156;-72
2021/03/18 06:59:39;;;;;;;8.90;5.53;;;3.60;99.90;;;;;;5004133;28;20392;-72
2021/03/18 07:02:09;;;;;;;7.38;4.38;;;3.60;99.90;;;;;;5000619;28;20029;-72
2021/03/18 07:04:49;;;;;;;10.80;6.10;;;3.70;99.90;;;;;;5004664;28;20036;-74
2021/03/18 07:07:17;;;;;;;9.18;5.50;;;3.60;99.90;;;;;;5002000;28;20493;-72
2021/03/18 07:09:44;;;;;;;8.50;4.90;;;3.60;99.90;;;;;;5000731;28;20120;-71
2021/03/18 07:12:16;;;;;;;16.83;6.57;;;3.60;99.90;;;;;;5004504;28;20034;-74
2021/03/18 07:14:47;;;;;;;13.30;6.00;;;3.70;99.90;;;;;;5004453;28;20030;-73
2021/03/18 07:17:39;;;;;;;12.63;6.60;;;3.60;99.90;;;;;;4994610;28;20072;-73
2021/03/18 07:20:22;;;;;;;10.60;6.28;;;3.80;99.90;;;;;;5004518;28;20041;-73
2021/03/18 07:22:56;;;;;;;14.30;6.97;;;3.80;99.90;;;;;;4997765;28;20026;-72
2021/03/18 07:25:28;;;;;;;12.50;6.97;;;3.80;99.90;;;;;;5004964;28;20022;-71
2021/03/18 07:27:59;;;;;;;10.18;5.53;;;3.80;99.90;;;;;;5007532;28;20044;-72
2021/03/18 07:30:36;;;;;;;12.25;6.40;;;3.80;99.90;;;;;;5006303;28;20026;-73
2021/03/18 07:33:06;;;;;;;11.95;5.85;;;3.90;99.90;;;;;;5007150;28;20026;-73
2021/03/18 07:35:33;;;;;;;8.45;5.57;;;3.80;99.90;;;;;;5006783;28;20129;-73
2021/03/18 07:37:59;;;;;;;10.98;6.30;;;4.00;99.90;;;;;;5006810;28;20022;-73
2021/03/18 07:40:26;;;;;;;12.57;6.57;;;4.00;99.90;;;;;;5006892;28;20093;-73
2021/03/18 07:42:56;;;;;;;12.07;6.18;;;4.00;99.90;;;;;;5000624;28;20022;-73
2021/03/18 07:45:24;;;;;;;15.02;6.05;;;4.10;99.90;;;;;;5006123;28;20461;-72
2021/03/18 07:47:50;;;;;;;11.65;6.22;;;4.20;99.90;;;;;;5005857;28;20029;-72
2021/03/18 07:50:19;;;;;;;13.43;5.60;;;4.30;99.90;;;;;;5011542;28;20059;-73
2021/03/18 07:52:47;;;;;;;10.98;6.35;;;4.40;99.90;;;;;;5045202;28;20048;-73
2021/03/18 07:55:18;;;;;;;11.43;5.78;;;4.50;99.90;;;;;;5044898;28;20079;-71
2021/03/18 07:57:49;;;;;;;9.63;5.53;;;4.70;99.90;;;;;;5044541;28;20467;-70
2021/03/18 08:00:25;;;;;;;11.43;5.75;;;4.80;99.90;;;;;;5045154;28;20025;-72
2021/03/18 08:03:14;;;;;;;11.77;6.22;;;5.00;99.90;;;;;;5044831;28;20112;-71
2021/03/18 08:05:41;;;;;;;10.63;5.43;;;5.10;99.90;;;;;;5045721;28;20025;-72
2021/03/18 08:08:07;;;;;;;11.65;6.25;;;5.20;99.90;;;;;;5045060;28;20033;-71
2021/03/18 08:10:33;;;;;;;11.85;6.30;;;5.20;99.90;;;;;;5044229;28;20147;-70
2021/03/18 08:13:06;;;;;;;12.25;7.10;;;5.30;99.90;;;;;;5045914;28;20466;-70
2021/03/18 08:15:40;;;;;;;11.43;6.25;;;5.40;99.90;;;;;;5044375;28;20057;-70
2021/03/18 08:18:14;;;;;;;11.18;5.93;;;5.30;99.90;;;;;;5043748;28;20013;-70
2021/03/18 08:20:40;;;;;;;11.88;6.25;;;5.40;99.90;;;;;;5046072;28;20021;-70
2021/03/18 08:23:27;;;;;;;10.07;6.18;;;5.50;99.90;;;;;;5045053;28;20028;-71
2021/03/18 08:26:07;;;;;;;13.65;6.97;;;5.60;99.90;;;;;;5044506;28;20502;-70
2021/03/18 08:28:56;;;;;;;13.30;6.67;;;5.70;99.90;;;;;;5043348;28;20041;-71
2021/03/18 08:31:24;;;;;;;13.15;7.40;;;5.80;99.90;;;;;;5041507;28;20446;-70
2021/03/18 08:33:51;;;;;;;16.38;7.60;;;5.80;99.90;;;;;;5038811;28;20047;-70
2021/03/18 08:36:19;;;;;;;15.02;7.03;;;5.90;99.90;;;;;;5041859;28;20028;-70
2021/03/18 08:38:46;;;;;;;17.42;7.18;;;6.00;99.90;;;;;;5037230;28;20029;-70
2021/03/18 08:41:43;;;;;;;16.52;7.95;;;6.10;99.90;;;;;;5034989;28;20494;-72
2021/03/18 08:44:19;;;;;;;16.67;7.05;;;6.20;99.90;;;;;;5036894;28;20040;-70
2021/03/18 08:47:06;;;;;;;14.13;6.97;;;6.40;99.90;;;;;;5037965;28;20112;-71
2021/03/18 08:49:37;;;;;;;13.27;6.47;;;6.60;99.90;;;;;;5039846;28;20033;-71
2021/03/18 08:52:04;;;;;;;10.05;5.60;;;6.70;99.90;;;;;;5040583;28;20056;-71
2021/03/18 08:54:44;;;;;;;10.65;5.72;;;6.80;99.90;;;;;;5040348;28;20068;-70
2021/03/18 08:57:25;;;;;;;8.73;5.20;;;6.80;99.90;;;;;;5040118;28;20499;-71
2021/03/18 08:59:54;;;;;;;12.60;6.50;;;6.70;99.90;;;;;;5040624;28;20033;-70
2021/03/18 09:02:32;;;;;;;11.13;5.68;;;6.60;99.90;;;;;;5041765;28;20114;-70
2021/03/18 09:04:59;;;;;;;9.60;5.43;;;6.60;99.90;;;;;;5036290;28;20107;-70
2021/03/18 09:07:30;;;;;;;11.82;6.85;;;6.70;99.90;;;;;;5059538;28;20507;-71
2021/03/18 09:10:12;;;;;;;14.55;5.40;;;6.80;99.90;;;;;;5055971;28;20044;-70
2021/03/18 09:12:47;;;;;;;8.93;5.03;;;7.00;99.90;;;;;;5047744;28;20380;-70
2021/03/18 09:15:20;;;;;;;12.07;4.88;;;7.20;99.90;;;;;;5058682;28;20037;-71
2021/03/18 09:17:48;;;;;;;10.27;5.57;;;7.30;99.90;;;;;;5050167;28;20484;-71
2021/03/18 09:20:17;;;;;;;10.68;5.13;;;7.40;99.90;;;;;;5059182;28;20036;-71
2021/03/18 09:22:43;;;;;;;7.88;4.30;;;7.50;99.90;;;;;;5057434;28;20108;-71
2021/03/18 09:25:10;;;;;;;8.90;4.97;;;7.50;98.50;;;;;;5060242;28;20039;-71
2021/03/18 09:27:39;;;;;;;8.27;4.40;;;7.50;99.70;;;;;;5053988;28;20024;-72
2021/03/18 09:30:18;;;;;;;11.02;5.43;;;7.40;97.80;;;;;;5057069;28;20113;-70
2021/03/18 09:32:43;;;;;;;11.43;5.55;;;7.40;99.90;;;;;;5060882;28;20032;-70
2021/03/18 09:35:14;;;;;;;15.15;6.70;;;7.50;99.40;;;;;;5063392;28;20141;-69
2021/03/18 09:37:40;;;;;;;12.75;6.65;;;7.50;99.90;;;;;;5060448;28;20054;-71
2021/03/18 09:40:09;;;;;;;12.27;6.88;;;7.40;99.90;;;;;;5058339;28;20033;-70
2021/03/18 09:42:35;;;;;;;11.10;5.68;;;7.40;99.90;;;;;;5059420;28;20028;-71
2021/03/18 09:45:02;;;;;;;11.18;5.65;;;7.50;99.90;;;;;;5062543;28;20505;-71
2021/03/18 09:47:28;;;;;;;10.02;5.28;;;7.50;99.80;;;;;;5063408;28;20032;-71
2021/03/18 09:49:53;;;;;;;9.48;5.53;;;7.30;99.30;;;;;;5051876;28;20441;-70
2021/03/18 09:52:24;;;;;;;11.50;5.07;;;7.20;99.90;;;;;;5064715;28;20036;-71
2021/03/18 09:54:50;;;;;;;10.52;5.82;;;7.20;99.90;;;;;;5062954;28;20111;-72
2021/03/18 09:57:20;;;;;;;11.45;5.22;;;7.20;99.80;;;;;;5062471;28;20115;-73
2021/03/18 09:59:51;;;;;;;8.60;4.75;;;7.10;99.70;;;;;;5066633;28;20020;-72
2021/03/18 10:02:19;;;;;;;7.57;4.20;;;6.90;99.90;;;;;;5063868;28;20024;-73
2021/03/18 10:04:48;;;;;;;8.30;4.38;;;6.90;99.90;;;;;;5063566;28;20093;-72
2021/03/18 10:07:17;;;;;;;9.32;5.28;;;7.00;99.90;;;;;;5069288;28;20102;-72
2021/03/18 10:09:46;;;;;;;9.65;5.10;;;7.00;99.90;;;;;;5068002;28;20025;-71
2021/03/18 10:12:15;;;;;;;11.73;5.40;;;7.00;99.90;;;;;;5073243;28;20025;-72
2021/03/18 10:15:11;;;;;;;7.35;4.72;;;7.20;99.90;;;;;;5074266;28;20023;-71
2021/03/18 10:17:42;;;;;;;8.57;4.72;;;7.30;99.90;;;;;;5023854;28;20041;-72
2021/03/18 10:20:28;;;;;;;12.30;5.97;;;7.60;99.90;;;;;;5068328;28;20036;-72
2021/03/18 10:23:14;;;;;;;7.38;4.20;;;7.80;99.30;;;;;;5053304;28;20020;-72
2021/03/18 10:25:42;;;;;;;8.05;4.28;;;8.10;98.10;;;;;;5073479;28;20042;-72
2021/03/18 10:28:14;;;;;;;8.02;3.63;;;8.40;97.50;;;;;;5067823;28;20030;-73
2021/03/18 10:30:43;;;;;;;9.18;4.07;;;8.50;94.20;;;;;;5073615;28;20066;-73
2021/03/18 10:33:17;;;;;;;6.55;3.85;;;8.70;94.50;;;;;;5053560;28;20032;-73
2021/03/18 10:35:55;;;;;;;10.30;4.20;;;9.00;93.80;;;;;;5064991;28;20033;-73
2021/03/18 10:38:31;;;;;;;6.65;3.78;;;9.10;92.90;;;;;;5061658;28;20016;-73
2021/03/18 10:40:59;;;;;;;6.47;3.60;;;9.00;92.10;;;;;;5056389;28;20016;-72
2021/03/18 10:43:31;;;;;;;6.53;3.53;;;9.10;94.60;;;;;;5065723;28;20017;-73
2021/03/18 10:46:02;;;;;;;6.60;3.85;;;9.40;90.20;;;;;;5059008;28;20036;-72
2021/03/18 10:48:31;;;;;;;5.28;3.28;;;9.40;90.80;;;;;;5062711;28;20032;-73
2021/03/18 10:51:06;;;;;;;7.22;3.60;;;9.50;89.90;;;;;;5072815;28;20054;-73
2021/03/18 10:53:39;;;;;;;5.43;3.55;;;9.40;89.80;;;;;;5061254;28;20040;-73
2021/03/18 10:56:09;;;;;;;6.45;3.40;;;9.40;88.70;;;;;;5070826;28;20093;-73
2021/03/18 10:58:39;;;;;;;6.72;3.90;;;9.60;89.90;;;;;;5068948;28;20088;-73
2021/03/18 11:01:07;;;;;;;5.80;3.95;;;9.50;89.40;;;;;;5066273;28;20060;-72
2021/03/18 11:03:46;;;;;;;10.05;4.72;;;9.40;87.10;;;;;;5071159;28;20025;-73
2021/03/18 11:06:16;;;;;;;7.97;4.30;;;9.20;89.50;;;;;;5070521;28;20391;-72
2021/03/18 11:08:45;;;;;;;7.93;4.90;;;9.20;89.10;;;;;;5076020;28;20035;-72
2021/03/18 11:11:16;;;;;;;16.83;5.20;;;9.40;89.50;;;;;;5070154;28;20024;-72
2021/03/18 11:13:43;;;;;;;8.32;5.18;;;9.90;89.30;;;;;;5065959;28;20064;-73
2021/03/18 11:16:10;;;;;;;11.85;5.88;;;10.40;86.80;;;;;;5053359;28;20032;-72
2021/03/18 11:18:39;;;;;;;9.80;5.22;;;10.70;82.40;;;;;;5046424;28;20020;-73
2021/03/18 11:21:33;;;;;;;9.93;5.43;;;10.80;79.60;;;;;;5052178;28;20458;-72
2021/03/18 11:24:07;;;;;;;7.18;4.55;;;10.80;80.70;;;;;;5057988;28;20023;-72
2021/03/18 11:26:34;;;;;;;8.35;4.55;;;10.30;79.40;;;;;;5063603;28;20536;-72
2021/03/18 11:29:08;;;;;;;6.47;4.00;;;10.20;82.80;;;;;;5061343;28;20040;-72
2021/03/18 11:31:38;;;;;;;8.98;4.82;;;10.30;78.10;;;;;;5064650;28;20046;-71
2021/03/18 11:34:14;;;;;;;10.15;4.65;;;10.20;80.50;;;;;;5052654;28;20473;-70
2021/03/18 11:36:41;;;;;;;8.32;4.82;;;10.10;81.70;;;;;;5053009;28;20086;-70
2021/03/18 11:39:09;;;;;;;8.10;4.72;;;10.20;83.00;;;;;;5059050;28;20029;-70
2021/03/18 11:41:35;;;;;;;8.27;5.03;;;10.10;81.90;;;;;;5061050;28;20039;-70
2021/03/18 11:44:01;;;;;;;7.60;4.45;;;10.10;79.90;;;;;;5059807;28;20028;-70
2021/03/18 11:46:27;;;;;;;7.63;4.85;;;10.00;81.70;;;;;;5054937;28;20739;-73
2021/03/18 11:48:53;;;;;;;8.13;3.80;;;9.90;82.70;;;;;;5055264;28;20116;-71
2021/03/18 11:51:20;;;;;;;7.05;4.00;;;10.00;79.90;;;;;;5058007;28;20131;-70
2021/03/18 11:53:46;;;;;;;9.95;3.45;;;10.20;78.40;;;;;;5055797;28;20032;-71
2021/03/18 11:56:11;;;;;;;5.90;4.05;;;10.80;75.30;;;;;;5051837;28;20059;-71
2021/03/18 11:58:37;;;;;;;10.48;3.35;;;10.70;75.60;;;;;;5049604;28;20060;-71
2021/03/18 12:01:03;;;;;;;7.47;4.03;;;10.50;75.80;;;;;;5056039;28;20036;-71
2021/03/18 12:03:28;;;;;;;6.05;3.42;;;10.40;76.80;;;;;;5057330;28;20357;-71
2021/03/18 12:05:54;;;;;;;9.68;3.90;;;10.20;77.70;;;;;;5057060;28;20125;-70
2021/03/18 12:08:19;;;;;;;6.03;3.40;;;10.30;78.70;;;;;;5063406;28;20028;-71
2021/03/18 12:10:45;;;;;;;6.70;3.67;;;10.50;74.30;;;;;;5052791;28;20036;-71
2021/03/18 12:13:11;;;;;;;6.25;3.40;;;10.60;75.80;;;;;;5060068;28;20028;-71
2021/03/18 12:15:36;;;;;;;6.55;3.60;;;10.40;72.10;;;;;;5064500;28;20119;-72
2021/03/18 12:18:02;;;;;;;6.03;3.72;;;10.30;73.40;;;;;;5061181;28;20055;-70
2021/03/18 12:20:28;;;;;;;6.05;3.55;;;10.00;75.00;;;;;;5049384;28;20250;-70
2021/03/18 12:22:55;;;;;;;6.70;3.60;;;9.90;77.90;;;;;;5053432;28;20021;-70
2021/03/18 12:25:21;;;;;;;7.68;3.50;;;10.10;74.60;;;;;;5061254;28;20067;-71
2021/03/18 12:27:48;;;;;;;5.22;2.92;;;10.40;73.90;;;;;;5064918;28;20124;-69
2021/03/18 12:30:20;;;;;;;4.82;3.00;;;10.50;75.20;;;;;;5065471;28;20013;-71
2021/03/18 12:32:50;;;;;;;5.82;3.10;;;10.70;74.20;;;;;;5054683;28;20032;-71
2021/03/18 12:35:16;;;;;;;4.35;2.90;;;10.60;72.90;;;;;;5058907;28;20057;-72
2021/03/18 12:37:42;;;;;;;5.05;3.00;;;10.40;75.30;;;;;;5062381;28;20521;-71
2021/03/18 12:40:12;;;;;;;8.25;3.55;;;10.20;74.20;;;;;;5052463;28;20147;-71
2021/03/18 12:42:38;;;;;;;6.32;3.15;;;9.90;78.00;;;;;;5051740;28;20021;-71
2021/03/18 12:45:09;;;;;;;4.00;2.70;;;9.70;77.80;;;;;;5058302;28;20029;-70
2021/03/18 12:47:35;;;;;;;5.75;2.60;;;9.40;79.20;;;;;;5058266;28;20066;-70
2021/03/18 12:50:03;;;;;;;5.05;2.80;;;9.10;80.60;;;;;;5060049;28;20029;-71
2021/03/18 12:52:29;;;;;;;6.85;2.90;;;8.90;84.60;;;;;;5063434;28;20029;-70
2021/03/18 12:54:54;;;;;;;8.65;3.20;;;8.70;86.50;;;;;;5063649;28;20035;-71
2021/03/18 12:57:26;;;;;;;7.57;3.17;;;8.60;87.60;;;;;;5041204;28;20033;-71
2021/03/18 12:59:51;;;;;;;;;;;8.60;87.90;;;;;;5055579;28;20483;-70
2021/03/18 13:02:17;;;;;;;6.90;3.00;;;8.50;87.50;;;;;;5054586;28;19958;-71
2021/03/18 13:04:43;;;;;;;4.40;2.65;;;8.60;88.60;;;;;;5047755;28;20171;-70
2021/03/18 13:07:09;;;;;;;4.38;2.85;;;8.50;89.80;;;;;;5056109;28;20039;-71